Time;durP1;ratioP1;P1;durP2;ratioP2;P2;SDS_P1;SDS_P2;PMS_P1;PMS_P2;Temp;Humidity;BMP_temperature;BMP_pressure;BME280_temperature;BME280_humidity;BME280_pressure;Samples;Min_cycle;Max_cycle;Signal;HPM_P1;HPM_P2
2022/04/04 00:00:18;;;;;;;6.43;4.93;;;;;;;0.46;74.30;101023.56;7396367;19;20022;-64
2022/04/04 00:02:49;;;;;;;8.65;4.60;;;;;;;0.42;76.52;101027.78;7394734;19;20023;-64
2022/04/04 00:05:17;;;;;;;6.72;4.75;;;;;;;0.41;74.43;101026.03;7396494;19;20018;-64
2022/04/04 00:07:45;;;;;;;4.40;4.00;;;;;;;0.41;74.59;101026.03;7396284;19;20043;-64
2022/04/04 00:10:13;;;;;;;4.45;3.90;;;;;;;0.41;74.53;101015.69;7394490;19;20027;-64
2022/04/04 00:12:41;;;;;;;4.88;4.07;;;;;;;0.41;75.00;101014.84;7396077;19;20017;-63
2022/04/04 00:15:11;;;;;;;8.20;4.47;;;;;;;0.39;75.20;101012.22;7393964;19;20506;-64
2022/04/04 00:17:39;;;;;;;4.80;4.13;;;;;;;0.38;74.30;101020.81;7395647;19;20018;-64
2022/04/04 00:20:11;;;;;;;5.07;4.57;;;;;;;0.37;73.98;101016.47;7395869;19;20025;-63
2022/04/04 00:22:40;;;;;;;5.28;3.97;;;;;;;0.37;74.59;101021.63;7394501;19;20031;-64
2022/04/04 00:25:08;;;;;;;5.78;4.18;;;;;;;0.37;75.44;101023.31;7393947;19;20018;-64
2022/04/04 00:27:36;;;;;;;6.15;4.47;;;;;;;0.36;74.91;101013.88;7394115;19;20018;-64
2022/04/04 00:30:06;;;;;;;4.93;4.50;;;;;;;0.37;74.71;101010.41;7394041;19;20014;-64
2022/04/04 00:32:36;;;;;;;5.93;4.65;;;;;;;0.37;74.95;101013.88;7393826;19;20022;-64
2022/04/04 00:35:04;;;;;;;6.43;4.18;;;;;;;0.38;75.79;101004.44;7393736;19;20022;-64
2022/04/04 00:37:37;;;;;;;7.25;4.28;;;;;;;0.38;76.72;101002.72;7393662;19;20015;-64
2022/04/04 00:40:06;;;;;;;4.97;4.13;;;;;;;0.39;76.42;101001.91;7394018;19;20022;-64
2022/04/04 00:42:35;;;;;;;6.47;4.55;;;;;;;0.40;75.73;101002.78;7393583;19;20015;-64
2022/04/04 00:45:03;;;;;;;5.85;4.45;;;;;;;0.41;76.34;101000.22;7393434;19;20018;-64
2022/04/04 00:47:31;;;;;;;8.18;4.35;;;;;;;0.43;75.56;101000.25;7395040;19;20031;-64
2022/04/04 00:49:59;;;;;;;5.93;4.45;;;;;;;0.43;75.02;100992.50;7393372;19;20547;-64
2022/04/04 00:52:28;;;;;;;6.43;4.40;;;;;;;0.43;75.84;100995.06;7394986;19;20032;-64
2022/04/04 00:54:59;;;;;;;6.93;4.40;;;;;;;0.44;75.22;100992.56;7393026;19;20019;-64
2022/04/04 00:57:27;;;;;;;5.95;4.35;;;;;;;0.43;75.31;100998.56;7395277;19;20031;-64
2022/04/04 00:59:56;;;;;;;6.70;4.18;;;;;;;0.42;75.36;100993.38;7392941;19;20011;-64
2022/04/04 01:02:24;;;;;;;4.75;4.20;;;;;;;0.42;76.02;100989.06;7394759;19;20022;-64
2022/04/04 01:04:52;;;;;;;5.38;4.22;;;;;;;0.43;75.44;100984.75;7392661;19;20018;-64
2022/04/04 01:07:20;;;;;;;7.85;4.57;;;;;;;0.43;75.08;100988.22;7394573;19;20022;-64
2022/04/04 01:09:48;;;;;;;8.25;4.90;;;;;;;0.42;75.38;100980.44;7394499;19;20035;-64
2022/04/04 01:12:22;;;;;;;6.25;4.15;;;;;;;0.43;75.16;100985.66;7392636;19;20018;-64
2022/04/04 01:14:50;;;;;;;5.13;4.40;;;;;;;0.43;75.27;100985.66;7393873;19;20023;-64
2022/04/04 01:17:21;;;;;;;7.10;4.65;;;;;;;0.44;75.85;100982.22;7392347;19;20023;-64
2022/04/04 01:19:50;;;;;;;5.68;4.70;;;;;;;0.44;75.93;100982.22;7392223;19;20422;-64
2022/04/04 01:22:18;;;;;;;5.28;4.53;;;;;;;0.46;74.94;100977.97;7391855;19;20432;-64
2022/04/04 01:24:50;;;;;;;5.38;4.57;;;;;;;0.48;74.75;100971.13;7391997;19;20019;-64
2022/04/04 01:27:24;;;;;;;6.15;4.68;;;;;;;0.51;74.94;100974.63;7394554;19;20010;-64
2022/04/04 01:29:52;;;;;;;5.05;4.55;;;;;;;0.53;74.19;100971.25;7392111;19;20509;-64
2022/04/04 01:32:21;;;;;;;6.10;4.85;;;;;;;0.53;74.19;100970.34;7394661;19;20022;-64
2022/04/04 01:34:49;;;;;;;4.95;4.18;;;;;;;0.47;73.97;100969.38;7391683;19;20040;-64
2022/04/04 01:37:17;;;;;;;5.53;3.92;;;;;;;0.43;74.25;100965.00;7393790;19;20015;-64
2022/04/04 01:39:45;;;;;;;4.93;4.25;;;;;;;0.38;74.08;100974.34;7395039;19;20100;-64
2022/04/04 01:42:16;;;;;;;4.82;4.22;;;;;;;0.33;74.02;100968.19;7400697;19;20445;-64
2022/04/04 01:44:44;;;;;;;6.68;4.10;;;;;;;0.27;74.51;100965.47;7398218;19;20027;-64
2022/04/04 01:47:12;;;;;;;5.03;4.53;;;;;;;0.21;74.24;100961.00;7400927;19;20027;-64
2022/04/04 01:49:40;;;;;;;5.07;4.43;;;;;;;0.15;74.17;100964.34;7400817;19;20018;-64
2022/04/04 01:52:09;;;;;;;5.85;4.55;;;;;;;0.10;74.67;100957.31;7400705;19;20022;-64
2022/04/04 01:54:37;;;;;;;7.30;4.80;;;;;;;0.04;74.52;100955.47;7397885;19;20018;-64
2022/04/04 01:57:06;;;;;;;4.80;4.22;;;;;;;0.02;74.35;100957.13;7398754;19;20027;-64
2022/04/04 01:59:37;;;;;;;6.32;5.18;;;;;;;-0.02;74.79;100956.16;7399416;19;20022;-64
2022/04/04 02:02:06;;;;;;;5.07;4.25;;;;;;;-0.07;74.35;100955.19;7400934;19;20032;-64
2022/04/04 02:04:34;;;;;;;5.90;4.32;;;;;;;-0.09;74.80;100953.41;7398353;19;20028;-64
2022/04/04 02:07:02;;;;;;;8.73;5.30;;;;;;;-0.14;75.14;100950.69;7400233;19;20018;-64
2022/04/04 02:09:30;;;;;;;5.93;4.70;;;;;;;-0.20;75.18;100942.81;7397517;19;20018;-64
2022/04/04 02:11:58;;;;;;;6.13;4.45;;;;;;;-0.22;75.17;100936.75;7397696;19;20018;-64
2022/04/04 02:14:27;;;;;;;5.57;4.93;;;;;;;-0.25;75.04;100944.38;7398188;19;20018;-64
2022/04/04 02:16:57;;;;;;;6.75;5.50;;;;;;;-0.30;75.21;100941.72;7397563;19;20481;-63
2022/04/04 02:19:25;;;;;;;6.28;4.70;;;;;;;-0.34;75.57;100929.56;7400220;19;20504;-65
2022/04/04 02:21:54;;;;;;;6.10;5.13;;;;;;;-0.38;75.91;100930.31;7398950;19;20014;-65
2022/04/04 02:24:22;;;;;;;7.78;5.32;;;;;;;-0.40;75.28;100929.41;7397531;19;20481;-64
2022/04/04 02:26:50;;;;;;;7.45;5.18;;;;;;;-0.43;75.33;100929.31;7397247;19;20018;-64
2022/04/04 02:29:18;;;;;;;5.22;4.72;;;;;;;-0.46;75.29;100929.25;7397956;19;20342;-64
2022/04/04 02:31:46;;;;;;;7.82;5.43;;;;;;;-0.49;75.62;100919.75;7399308;19;20027;-64
2022/04/04 02:34:17;;;;;;;5.88;4.80;;;;;;;-0.52;75.48;100919.63;7397824;19;20022;-64
2022/04/04 02:36:52;;;;;;;7.00;4.85;;;;;;;-0.54;75.38;100917.03;7397241;19;20015;-65
2022/04/04 02:39:20;;;;;;;8.90;5.50;;;;;;;-0.56;75.33;100907.50;7396388;19;20477;-63
2022/04/04 02:41:48;;;;;;;5.57;5.07;;;;;;;-0.59;75.60;100907.44;7399174;19;20018;-64
2022/04/04 02:44:16;;;;;;;7.10;5.30;;;;;;;-0.61;75.30;100897.06;7396662;19;20026;-64
2022/04/04 02:46:44;;;;;;;7.72;5.95;;;;;;;-0.63;75.58;100895.28;7398627;19;20472;-64
2022/04/04 02:49:12;;;;;;;9.38;6.05;;;;;;;-0.67;75.77;100899.47;7396726;19;20019;-64
2022/04/04 02:51:43;;;;;;;9.15;6.00;;;;;;;-0.69;75.92;100894.28;7397591;19;20019;-64
2022/04/04 02:54:11;;;;;;;6.50;5.78;;;;;;;-0.71;75.92;100884.78;7397233;19;20431;-64
2022/04/04 02:56:41;;;;;;;8.73;6.13;;;;;;;-0.72;75.92;100883.91;7396354;19;20035;-64
2022/04/04 02:59:12;;;;;;;10.25;6.43;;;;;;;-0.74;76.03;100879.56;7397679;19;20030;-65
2022/04/04 03:01:47;;;;;;;8.30;5.90;;;;;;;-0.74;75.87;100876.97;7398781;19;20074;-64
2022/04/04 03:04:15;;;;;;;8.23;6.30;;;;;;;-0.76;75.86;100878.63;7396343;19;20019;-64
2022/04/04 03:06:46;;;;;;;7.25;6.00;;;;;;;-0.78;76.01;100876.03;7398182;19;20018;-64
2022/04/04 03:09:15;;;;;;;7.18;6.00;;;;;;;-0.78;76.05;100877.72;7396398;19;20014;-64
2022/04/04 03:11:43;;;;;;;9.73;6.57;;;;;;;-0.79;75.82;100874.28;7395998;19;20031;-64
2022/04/04 03:14:11;;;;;;;7.82;6.00;;;;;;;-0.80;76.50;100876.81;7396797;19;20026;-64
2022/04/04 03:16:39;;;;;;;9.52;7.03;;;;;;;-0.81;77.55;100878.50;7397916;19;20014;-65
2022/04/04 03:19:07;;;;;;;6.82;6.13;;;;;;;-0.83;76.48;100870.72;7396529;19;20378;-64
2022/04/04 03:21:36;;;;;;;9.10;6.32;;;;;;;-0.84;76.71;100866.41;7397804;19;20022;-64
2022/04/04 03:24:06;;;;;;;8.85;6.32;;;;;;;-0.86;77.48;100862.94;7395594;19;20022;-64
2022/04/04 03:26:35;;;;;;;7.88;7.07;;;;;;;-0.87;77.59;100855.19;7395212;19;20423;-64
2022/04/04 03:29:03;;;;;;;8.23;7.35;;;;;;;-0.87;77.55;100857.75;7396414;19;20112;-65
2022/04/04 03:31:31;;;;;;;9.98;8.07;;;;;;;-0.88;77.38;100856.00;7397361;19;20039;-64
2022/04/04 03:33:59;;;;;;;13.02;8.55;;;;;;;-0.89;78.40;100856.84;7394581;19;20404;-64
2022/04/04 03:36:27;;;;;;;13.18;8.70;;;;;;;-0.90;78.39;100850.78;7397019;19;20027;-64
2022/04/04 03:38:55;;;;;;;12.25;9.85;;;;;;;-0.89;77.71;100847.38;7396266;19;20022;-64
2022/04/04 03:41:26;;;;;;;13.20;9.90;;;;;;;-0.88;77.52;100850.84;7396503;19;20027;-65
2022/04/04 03:43:55;;;;;;;16.95;12.00;;;;;;;-0.89;78.39;100847.38;7395642;19;20019;-65
2022/04/04 03:46:23;;;;;;;16.45;12.82;;;;;;;-0.90;79.47;100840.47;7396634;19;20032;-65
2022/04/04 03:48:51;;;;;;;17.35;12.95;;;;;;;-0.90;80.80;100843.06;7394627;19;20023;-65
2022/04/04 03:51:19;;;;;;;20.00;14.70;;;;;;;-0.89;80.91;100838.78;7394897;19;20022;-65
2022/04/04 03:53:47;;;;;;;22.83;14.82;;;;;;;-0.89;79.10;100834.50;7394379;19;20014;-65
2022/04/04 03:56:15;;;;;;;23.45;14.77;;;;;;;-0.88;78.78;100833.69;7394672;19;20035;-65
2022/04/04 03:58:46;;;;;;;21.95;14.73;;;;;;;-0.86;79.46;100834.59;7396109;19;20019;-65
2022/04/04 04:01:15;;;;;;;21.95;14.35;;;;;;;-0.87;79.36;100825.13;7394019;19;20485;-65
2022/04/04 04:03:43;;;;;;;20.23;15.23;;;;;;;-0.86;79.04;100829.44;7391425;19;20027;-65
2022/04/04 04:06:14;;;;;;;19.70;15.02;;;;;;;-0.87;79.59;100830.28;7393766;19;20422;-65
2022/04/04 04:08:44;;;;;;;20.95;14.57;;;;;;;-0.89;79.67;100813.03;7397373;19;20014;-65
2022/04/04 04:11:13;;;;;;;17.05;13.13;;;;;;;-0.88;78.40;100815.66;7395822;19;20240;-65
2022/04/04 04:13:42;;;;;;;20.00;14.50;;;;;;;-0.88;80.01;100810.50;7393447;19;20038;-65
2022/04/04 04:16:14;;;;;;;19.17;14.23;;;;;;;-0.89;79.46;100806.16;7393680;19;20367;-65
2022/04/04 04:18:42;;;;;;;20.33;15.07;;;;;;;-0.90;78.91;100812.16;7395672;19;20015;-65
2022/04/04 04:21:12;;;;;;;18.50;14.65;;;;;;;-0.89;79.60;100805.31;7393927;19;20035;-65
2022/04/04 04:23:41;;;;;;;21.58;13.90;;;;;;;-0.90;79.51;100803.56;7394609;19;20443;-64
2022/04/04 04:26:12;;;;;;;20.17;14.05;;;;;;;-0.90;80.80;100799.28;7393749;19;20035;-65
2022/04/04 04:28:40;;;;;;;19.58;14.55;;;;;;;-0.92;81.12;100795.81;7395490;19;20006;-65
2022/04/04 04:31:09;;;;;;;18.33;13.70;;;;;;;-0.91;80.28;100801.81;7392948;19;20023;-65
2022/04/04 04:33:39;;;;;;;18.98;15.25;;;;;;;-0.93;80.78;100793.19;7392772;19;20018;-65
2022/04/04 04:36:08;;;;;;;21.70;14.60;;;;;;;-0.90;80.91;100795.84;7393679;19;20039;-65
2022/04/04 04:38:36;;;;;;;19.48;15.15;;;;;;;-0.91;81.13;100787.25;7393482;19;20046;-65
2022/04/04 04:41:05;;;;;;;19.02;15.13;;;;;;;-0.90;81.21;100794.13;7393418;19;20411;-64
2022/04/04 04:43:33;;;;;;;21.55;16.35;;;;;;;-0.90;81.94;100785.53;7394422;19;20026;-64
2022/04/04 04:46:01;;;;;;;20.25;15.13;;;;;;;-0.90;81.80;100791.53;7393206;19;20019;-64
2022/04/04 04:48:29;;;;;;;21.60;16.95;;;;;;;-0.89;81.42;100788.13;7392657;19;20022;-64
2022/04/04 04:51:00;;;;;;;25.23;18.23;;;;;;;-0.87;82.20;100789.06;7394266;19;20418;-64
2022/04/04 04:53:28;;;;;;;25.33;17.60;;;;;;;-0.85;82.81;100791.66;7392657;19;20019;-64
2022/04/04 04:55:56;;;;;;;23.23;18.13;;;;;;;-0.84;82.38;100783.97;7391856;19;20041;-64
2022/04/04 04:58:24;;;;;;;21.40;17.40;;;;;;;-0.83;82.64;100783.16;7391637;19;20395;-64
2022/04/04 05:00:53;;;;;;;23.08;18.70;;;;;;;-0.80;82.09;100784.06;7391403;19;20019;-64
2022/04/04 05:03:29;;;;;;;24.05;18.05;;;;;;;-0.80;82.81;100774.63;7391858;19;20026;-64
2022/04/04 05:06:00;;;;;;;23.25;17.83;;;;;;;-0.77;83.27;100773.81;7391849;19;20039;-63
2022/04/04 05:08:30;;;;;;;22.00;17.58;;;;;;;-0.76;82.51;100766.13;7391714;19;20021;-63
2022/04/04 05:10:59;;;;;;;24.10;17.88;;;;;;;-0.74;81.98;100773.91;7391393;19;20041;-66
2022/04/04 05:13:28;;;;;;;23.75;17.83;;;;;;;-0.72;82.24;100764.50;7391547;19;20018;-62
2022/04/04 05:15:56;;;;;;;25.33;18.88;;;;;;;-0.70;83.15;100760.28;7397491;19;20015;-63
2022/04/04 05:18:24;;;;;;;24.08;18.13;;;;;;;-0.67;82.32;100760.34;7397555;19;20010;-64
2022/04/04 05:20:52;;;;;;;22.92;18.23;;;;;;;-0.68;83.06;100749.16;7398168;19;20018;-65
2022/04/04 05:23:23;;;;;;;22.65;18.38;;;;;;;-0.59;81.97;100747.66;7399806;19;20035;-68
2022/04/04 05:26:13;;;;;;;25.17;18.48;;;;;;;-0.55;82.15;100752.91;7400784;19;20029;-65
2022/04/04 05:28:42;;;;;;;24.55;19.98;;;;;;;-0.51;82.72;100741.81;7401127;19;20031;-67
2022/04/04 05:31:23;;;;;;;25.33;19.73;;;;;;;-0.44;82.34;100742.84;7398939;19;20014;-67
2022/04/04 05:33:52;;;;;;;23.10;18.38;;;;;;;-0.39;82.33;100738.69;7399092;19;20019;-66
2022/04/04 05:36:20;;;;;;;24.13;17.83;;;;;;;-0.32;82.32;100739.69;7397874;19;20023;-66
2022/04/04 05:38:51;;;;;;;21.88;19.08;;;;;;;-0.26;81.62;100744.97;7399756;19;20035;-66
2022/04/04 05:41:19;;;;;;;21.58;18.67;;;;;;;-0.20;82.42;100733.94;7397179;19;20489;-65
2022/04/04 05:43:49;;;;;;;23.10;18.65;;;;;;;-0.14;82.07;100731.47;7398099;19;20482;-66
2022/04/04 05:46:18;;;;;;;24.55;18.55;;;;;;;-0.08;81.82;100729.03;7400540;19;20011;-67
2022/04/04 05:48:47;;;;;;;24.85;18.70;;;;;;;-0.01;81.63;100727.47;7398020;19;20015;-66
2022/04/04 05:51:17;;;;;;;23.58;18.60;;;;;;;0.03;80.57;100718.97;7398198;19;20018;-66
2022/04/04 05:53:46;;;;;;;25.58;18.45;;;;;;;0.13;80.76;100726.03;7399143;19;20035;-67
2022/04/04 05:56:16;;;;;;;21.88;17.77;;;;;;;0.21;80.70;100720.19;7397615;19;20039;-67
2022/04/04 05:58:45;;;;;;;23.42;18.75;;;;;;;0.27;80.42;100723.75;7398056;19;20015;-66
2022/04/04 06:01:13;;;;;;;23.05;17.45;;;;;;;0.35;80.00;100717.88;7397531;19;20093;-66
2022/04/04 06:03:41;;;;;;;21.70;17.50;;;;;;;0.40;79.36;100719.69;7398622;19;20023;-66
2022/04/04 06:06:09;;;;;;;23.65;17.80;;;;;;;0.48;79.21;100715.56;7396146;19;20018;-66
2022/04/04 06:08:38;;;;;;;18.92;16.92;;;;;;;0.58;78.95;100718.31;7396280;19;20022;-65
2022/04/04 06:11:06;;;;;;;19.90;17.77;;;;;;;0.66;78.68;100716.75;7398661;19;20019;-66
2022/04/04 06:13:37;;;;;;;21.42;18.00;;;;;;;0.74;78.79;100715.16;7398167;19;20484;-68
2022/04/04 06:16:06;;;;;;;20.50;16.95;;;;;;;0.80;78.56;100710.09;7399820;19;20031;-68
2022/04/04 06:18:34;;;;;;;19.95;17.70;;;;;;;0.89;78.03;100708.53;7396876;19;20042;-67
2022/04/04 06:21:03;;;;;;;19.52;16.15;;;;;;;0.97;77.60;100697.50;7396945;19;20019;-66
2022/04/04 06:23:33;;;;;;;21.80;17.40;;;;;;;1.05;77.22;100701.91;7396254;19;20105;-66
2022/04/04 06:26:04;;;;;;;19.95;16.60;;;;;;;1.11;76.96;100695.13;7397175;19;20014;-66
2022/04/04 06:28:34;;;;;;;21.38;17.20;;;;;;;1.19;76.73;100694.38;7397077;19;20037;-67
2022/04/04 06:31:06;;;;;;;20.42;17.98;;;;;;;1.27;76.21;100690.19;7397229;19;20082;-66
2022/04/04 06:33:34;;;;;;;18.63;16.65;;;;;;;1.36;75.83;100685.16;7397066;19;20355;-66
2022/04/04 06:36:02;;;;;;;19.88;17.05;;;;;;;1.46;75.35;100674.09;7396330;19;20039;-65
2022/04/04 06:38:31;;;;;;;19.45;16.48;;;;;;;1.56;75.24;100672.53;7398247;19;20019;-65
2022/04/04 06:40:59;;;;;;;18.08;15.18;;;;;;;1.67;74.55;100672.69;7396045;19;20027;-65
2022/04/04 06:43:27;;;;;;;19.08;17.08;;;;;;;1.76;74.30;100665.03;7398389;19;20027;-65
2022/04/04 06:45:55;;;;;;;18.52;16.52;;;;;;;1.88;73.84;100661.72;7396327;19;20018;-65
2022/04/04 06:48:26;;;;;;;18.38;16.38;;;;;;;1.98;73.33;100662.72;7398443;19;20018;-65
2022/04/04 06:50:54;;;;;;;17.00;15.18;;;;;;;2.08;72.80;100658.53;7396449;19;20014;-66
2022/04/04 06:53:23;;;;;;;17.23;15.48;;;;;;;2.16;72.40;100651.75;7397688;19;20018;-66
2022/04/04 06:55:51;;;;;;;21.17;16.88;;;;;;;2.24;71.90;100655.25;7396056;19;20496;-65
2022/04/04 06:58:21;;;;;;;17.95;14.82;;;;;;;2.32;70.84;100652.75;7396267;19;20018;-65
2022/04/04 07:00:49;;;;;;;17.25;15.45;;;;;;;2.41;70.90;100647.69;7396682;19;20018;-65
2022/04/04 07:03:17;;;;;;;18.42;16.08;;;;;;;2.49;70.57;100637.41;7397703;19;20019;-65
2022/04/04 07:05:47;;;;;;;18.13;14.75;;;;;;;2.58;70.15;100637.47;7396140;19;20489;-68
2022/04/04 07:08:16;;;;;;;16.50;14.77;;;;;;;2.62;70.06;100620.25;7398289;19;20018;-66
2022/04/04 07:10:44;;;;;;;18.65;14.80;;;;;;;2.76;69.53;100623.81;7396135;19;20015;-67
2022/04/04 07:13:12;;;;;;;15.27;13.68;;;;;;;2.87;68.85;100621.31;7395948;19;20040;-67
2022/04/04 07:15:41;;;;;;;16.65;14.82;;;;;;;2.97;68.10;100626.56;7395209;19;20079;-66
2022/04/04 07:18:10;;;;;;;17.73;13.85;;;;;;;3.01;67.18;100617.94;7395207;19;20489;-66
2022/04/04 07:20:39;;;;;;;16.55;14.10;;;;;;;3.08;66.76;100618.03;7396640;19;20025;-65
2022/04/04 07:23:09;;;;;;;20.35;15.63;;;;;;;3.15;67.54;100611.16;7395853;19;20018;-66
2022/04/04 07:25:38;;;;;;;18.83;14.57;;;;;;;3.22;66.12;100601.69;7396603;19;20510;-69
2022/04/04 07:28:08;;;;;;;16.85;13.73;;;;;;;3.31;66.87;100595.69;7395889;19;20014;-67
2022/04/04 07:30:36;;;;;;;16.38;14.15;;;;;;;3.38;65.85;100590.53;7395690;19;20081;-64
2022/04/04 07:33:05;;;;;;;15.27;13.68;;;;;;;3.46;65.72;100585.38;7396693;19;20031;-64
2022/04/04 07:35:33;;;;;;;19.38;13.05;;;;;;;3.52;64.45;100585.41;7396534;19;20481;-65
2022/04/04 07:38:01;;;;;;;14.73;12.85;;;;;;;3.57;63.86;100582.84;7396009;19;20022;-65
2022/04/04 07:40:32;;;;;;;15.60;13.27;;;;;;;3.65;64.68;100575.97;7395989;19;20015;-64
2022/04/04 07:43:00;;;;;;;17.23;13.95;;;;;;;3.73;63.92;100578.59;7395052;19;20035;-65
2022/04/04 07:45:30;;;;;;;17.48;13.07;;;;;;;3.79;62.81;100580.34;7396261;19;20011;-66
2022/04/04 07:47:59;;;;;;;16.08;13.18;;;;;;;3.83;62.77;100572.56;7394289;19;20477;-65
2022/04/04 07:50:28;;;;;;;17.05;13.27;;;;;;;3.87;62.21;100573.47;7396152;19;20018;-69
2022/04/04 07:52:56;;;;;;;14.15;12.65;;;;;;;3.95;63.51;100573.47;7395923;19;20038;-65
2022/04/04 07:55:24;;;;;;;14.20;12.20;;;;;;;4.02;62.68;100565.72;7394024;19;20018;-64
2022/04/04 07:57:55;;;;;;;17.38;13.40;;;;;;;4.09;62.42;100584.75;7393215;19;20035;-66
2022/04/04 08:00:24;;;;;;;17.08;13.57;;;;;;;4.14;61.20;100556.22;7395268;19;20019;-62
2022/04/04 08:02:53;;;;;;;22.95;11.32;;;;;;;4.16;61.20;100562.28;7393702;19;20026;-67
2022/04/04 08:05:21;;;;;;;13.95;11.65;;;;;;;4.16;60.09;100560.53;7394870;19;20395;-65
2022/04/04 08:07:52;;;;;;;13.18;11.48;;;;;;;4.23;61.39;100549.31;7393771;19;20121;-67
2022/04/04 08:10:21;;;;;;;15.73;11.38;;;;;;;4.31;60.72;100546.72;7397088;19;20077;-63
2022/04/04 08:12:49;;;;;;;14.57;11.52;;;;;;;4.36;59.59;100537.19;7393767;19;20019;-63
2022/04/04 08:15:20;;;;;;;14.77;10.60;;;;;;;4.41;58.51;100539.81;7394414;19;20037;-64
2022/04/04 08:17:48;;;;;;;14.43;10.63;;;;;;;4.46;58.90;100544.97;7396006;19;20014;-65
2022/04/04 08:20:16;;;;;;;14.25;10.43;;;;;;;4.50;58.62;100524.19;7394769;19;20028;-66
2022/04/04 08:22:47;;;;;;;14.77;10.25;;;;;;;4.55;57.40;100522.47;7395076;19;20045;-64
2022/04/04 08:25:17;;;;;;;17.95;11.52;;;;;;;4.58;57.66;100511.19;7394070;19;20035;-67
2022/04/04 08:27:46;;;;;;;14.05;12.45;;;;;;;4.57;57.12;100520.75;7393538;19;20010;-66
2022/04/04 08:30:16;;;;;;;14.77;11.43;;;;;;;4.57;57.54;100507.75;7392542;19;20011;-66
2022/04/04 08:32:47;;;;;;;14.25;12.10;;;;;;;4.57;57.06;100499.97;7394442;19;20485;-68
2022/04/04 08:35:17;;;;;;;12.60;10.70;;;;;;;4.59;56.76;100486.06;7394368;19;20029;-67
2022/04/04 08:37:48;;;;;;;17.10;11.63;;;;;;;4.60;56.88;100493.88;7394766;19;20037;-63
2022/04/04 08:40:18;;;;;;;15.35;11.43;;;;;;;4.65;56.86;100486.94;7394758;19;20043;-64
2022/04/04 08:42:47;;;;;;;14.85;12.05;;;;;;;4.75;57.71;100466.97;7393078;19;20082;-66
2022/04/04 08:45:15;;;;;;;14.98;11.75;;;;;;;4.79;56.42;100466.13;7393162;19;20011;-66
2022/04/04 08:47:46;;;;;;;17.40;12.73;;;;;;;4.88;55.92;100475.63;7394384;19;20018;-67
2022/04/04 08:50:15;;;;;;;17.83;11.05;;;;;;;4.91;55.44;100473.03;7391327;19;20035;-67
2022/04/04 08:52:43;;;;;;;13.98;11.48;;;;;;;4.92;55.03;100468.72;7393245;19;20021;-65
2022/04/04 08:55:13;;;;;;;16.08;11.90;;;;;;;4.99;56.15;100468.69;7393674;19;20039;-69
2022/04/04 08:57:41;;;;;;;14.82;11.35;;;;;;;5.03;55.68;100451.31;7394766;19;20046;-69
2022/04/04 09:00:10;;;;;;;16.00;11.38;;;;;;;5.05;55.15;100445.25;7394778;19;20011;-67
2022/04/04 09:02:39;;;;;;;12.70;9.95;;;;;;;5.06;55.13;100444.34;7392829;19;20021;-68
2022/04/04 09:05:11;;;;;;;14.13;10.68;;;;;;;5.08;55.14;100443.50;7392626;19;20011;-68
2022/04/04 09:08:01;;;;;;;12.02;10.57;;;;;;;5.12;54.68;100430.47;7394500;19;20019;-66
2022/04/04 09:10:34;;;;;;;11.68;9.98;;;;;;;5.09;53.92;100411.44;7395177;19;20021;-66
2022/04/04 09:13:10;;;;;;;13.30;10.63;;;;;;;5.15;54.04;100408.81;7393892;19;20021;-67
2022/04/04 09:15:55;;;;;;;14.25;10.43;;;;;;;5.20;53.99;100400.09;7394075;19;20031;-67
2022/04/04 09:18:49;;;;;;;12.73;9.90;;;;;;;5.21;52.94;100393.16;7392446;19;20035;-67
2022/04/04 09:21:35;;;;;;;12.95;11.00;;;;;;;5.30;52.98;100387.06;7392244;19;20023;-66
2022/04/04 09:24:07;;;;;;;15.00;10.32;;;;;;;5.35;53.19;100382.69;7393609;19;20018;-66
2022/04/04 09:26:38;;;;;;;12.45;10.60;;;;;;;5.36;52.46;100376.63;7393307;19;20481;-66
2022/04/04 09:29:09;;;;;;;11.70;9.63;;;;;;;5.43;53.26;100357.47;7392597;19;20010;-68
2022/04/04 09:31:38;;;;;;;11.57;9.68;;;;;;;5.49;51.73;100380.84;7392354;19;20033;-66
2022/04/04 09:34:07;;;;;;;14.43;9.77;;;;;;;5.58;52.14;100346.09;7391630;19;20034;-66
2022/04/04 09:36:48;;;;;;;10.50;9.50;;;;;;;5.60;51.46;100344.34;7391421;19;20019;-69
2022/04/04 09:39:18;;;;;;;10.25;8.98;;;;;;;5.67;51.96;100340.84;7391341;19;20027;-68
2022/04/04 09:41:47;;;;;;;11.57;10.10;;;;;;;5.70;50.94;100332.97;7391091;19;20029;-65
2022/04/04 09:44:16;;;;;;;11.23;9.82;;;;;;;5.74;51.72;100319.94;7390986;19;20015;-66
2022/04/04 09:46:46;;;;;;;12.05;9.65;;;;;;;5.81;52.24;100309.47;7392608;19;20045;-65
2022/04/04 09:49:16;;;;;;;9.88;8.88;;;;;;;5.89;50.98;100306.81;7392623;19;20039;-66
2022/04/04 09:51:50;;;;;;;11.90;9.32;;;;;;;5.92;49.89;100298.94;7393278;19;20026;-69
2022/04/04 09:54:20;;;;;;;13.18;9.13;;;;;;;5.98;49.98;100291.09;7391199;19;20025;-66
2022/04/04 09:56:50;;;;;;;9.07;8.18;;;;;;;6.02;50.39;100274.56;7390435;19;20557;-67
2022/04/04 09:59:19;;;;;;;11.50;8.40;;;;;;;6.06;49.72;100270.19;7390458;19;20015;-66
2022/04/04 10:01:49;;;;;;;10.77;8.25;;;;;;;6.10;49.61;100271.03;7393736;19;20010;-68
2022/04/04 10:04:17;;;;;;;13.95;8.70;;;;;;;6.12;49.73;100258.84;7396659;19;20473;-69
2022/04/04 10:06:52;;;;;;;12.80;7.22;;;;;;;6.15;49.24;100244.03;7397288;19;20010;-67
2022/04/04 10:09:21;;;;;;;11.20;7.65;;;;;;;6.19;49.29;100231.84;7401180;19;20042;-71
2022/04/04 10:11:50;;;;;;;10.98;7.68;;;;;;;6.24;49.00;100239.59;7398697;19;20477;-67
2022/04/04 10:14:19;;;;;;;8.00;6.68;;;;;;;6.31;48.43;100216.06;7396595;19;20460;-65
2022/04/04 10:16:48;;;;;;;7.38;6.20;;;;;;;6.42;48.52;100247.22;7396108;19;20367;-67
2022/04/04 10:19:18;;;;;;;10.27;6.38;;;;;;;6.51;47.61;100244.47;7398670;19;20035;-65
2022/04/04 10:21:49;;;;;;;9.75;6.60;;;;;;;6.63;47.73;100238.22;7395977;19;20022;-64
2022/04/04 10:24:18;;;;;;;10.20;6.55;;;;;;;6.63;46.69;100206.94;7396259;19;20015;-65
2022/04/04 10:26:50;;;;;;;13.93;6.18;;;;;;;6.60;45.63;100201.78;7398313;19;20020;-64
2022/04/04 10:29:22;;;;;;;12.50;6.85;;;;;;;6.60;45.72;100204.38;7398658;19;20018;-66
2022/04/04 10:31:52;;;;;;;10.68;6.20;;;;;;;6.62;45.81;100192.22;7397783;19;20010;-65
2022/04/04 10:34:29;;;;;;;15.75;6.88;;;;;;;6.61;45.34;100185.28;7396158;19;20395;-67
2022/04/04 10:37:02;;;;;;;10.82;6.22;;;;;;;6.68;45.71;100170.38;7396447;19;20103;-65
2022/04/04 10:39:41;;;;;;;14.27;5.75;;;;;;;6.78;45.31;100160.69;7396272;19;20018;-65
2022/04/04 10:42:26;;;;;;;11.40;5.70;;;;;;;6.91;45.32;100140.50;7396126;19;20022;-63
2022/04/04 10:45:03;;;;;;;11.15;6.05;;;;;;;7.04;43.86;100143.75;7395836;19;20027;-66
2022/04/04 10:47:32;;;;;;;20.55;5.68;;;;;;;7.14;43.74;100150.53;7395409;19;20432;-65
2022/04/04 10:50:18;;;;;;;9.82;5.60;;;;;;;7.19;43.55;100135.69;7395568;19;20019;-65
2022/04/04 10:52:49;;;;;;;7.28;4.80;;;;;;;7.32;43.38;100120.66;7395913;19;20032;-65
2022/04/04 10:55:30;;;;;;;11.48;4.57;;;;;;;7.41;42.40;100110.03;7396037;19;20018;-65
2022/04/04 10:58:02;;;;;;;14.63;4.95;;;;;;;7.44;41.84;100103.91;7396419;19;20041;-66
2022/04/04 11:00:34;;;;;;;11.07;4.80;;;;;;;7.48;41.99;100088.16;7396657;19;20014;-64
2022/04/04 11:03:03;;;;;;;8.73;4.07;;;;;;;7.61;41.16;100080.09;7396107;19;20081;-65
2022/04/04 11:08:22;;;;;;;15.00;4.35;;;;;;;7.87;39.34;100076.91;7397883;19;20010;-66
2022/04/04 11:10:53;;;;;;;9.48;3.90;;;;;;;7.92;39.96;100063.78;7396050;19;20085;-66
2022/04/04 11:13:21;;;;;;;8.02;3.78;;;;;;;7.95;39.22;100064.56;7393017;19;20481;-65
2022/04/04 11:15:55;;;;;;;5.45;3.53;;;;;;;8.01;38.45;100067.94;7396549;19;20091;-65
2022/04/04 11:18:24;;;;;;;9.82;3.75;;;;;;;8.02;37.73;100033.94;7394981;19;20077;-65
2022/04/04 11:20:59;;;;;;;20.98;4.43;;;;;;;8.05;37.10;100031.28;7393341;19;20060;-66
2022/04/04 11:23:34;;;;;;;16.42;4.35;;;;;;;7.99;36.53;100036.63;7394332;19;20041;-63
2022/04/04 11:26:04;;;;;;;15.85;3.85;;;;;;;8.01;36.32;100031.38;7396389;19;20398;-65
2022/04/04 11:28:38;;;;;;;18.80;3.80;;;;;;;7.94;36.13;100039.34;7396050;19;20011;-65
2022/04/04 11:31:09;;;;;;;;;;;;;;;7.90;35.71;100024.63;7395421;19;20019;-66
2022/04/04 11:33:47;;;;;;;20.48;4.40;;;;;;;7.85;35.65;100031.72;7393924;19;19919;-68
2022/04/04 11:36:23;;;;;;;15.02;3.92;;;;;;;7.87;35.30;100014.25;7395819;19;20477;-66